createdAt,value
2024-04-23T00:00:15.816Z,1006.18
2024-04-23T00:01:15.913Z,1006.16
2024-04-23T00:02:15.960Z,1006.20
2024-04-23T00:03:16.053Z,1006.16
2024-04-23T00:04:16.121Z,1006.13
2024-04-23T00:05:16.249Z,1006.13
2024-04-23T00:06:16.268Z,1006.14
2024-04-23T00:07:16.318Z,1006.14
2024-04-23T00:08:16.396Z,1006.13
2024-04-23T00:09:16.499Z,1006.14
2024-04-23T00:10:16.551Z,1006.13
2024-04-23T00:11:16.760Z,1006.15
2024-04-23T00:12:16.684Z,1006.11
2024-04-23T00:13:16.768Z,1006.12
2024-04-23T00:14:16.849Z,1006.11
2024-04-23T00:15:16.944Z,1006.09
2024-04-23T00:16:16.994Z,1006.08
2024-04-23T00:17:17.086Z,1006.08
2024-04-23T00:18:17.230Z,1006.10
2024-04-23T00:19:17.204Z,1006.09
2024-04-23T00:20:17.284Z,1006.06
2024-04-23T00:21:17.370Z,1006.10
2024-04-23T00:22:17.427Z,1006.04
2024-04-23T00:23:17.501Z,1006.03
2024-04-23T00:24:17.582Z,1006.02
2024-04-23T00:25:17.670Z,1006.04
2024-04-23T00:26:17.741Z,1006.05
2024-04-23T00:27:17.814Z,1005.99
2024-04-23T00:28:17.871Z,1006.00
2024-04-23T00:29:17.973Z,1005.98
2024-04-23T00:30:18.064Z,1005.98
2024-04-23T00:31:18.133Z,1005.96
2024-04-23T00:32:18.350Z,1005.98
2024-04-23T00:33:18.340Z,1005.99
2024-04-23T00:34:18.359Z,1005.97
2024-04-23T00:35:18.441Z,1005.96
2024-04-23T00:36:18.519Z,1005.97
2024-04-23T00:37:18.582Z,1005.93
2024-04-23T00:38:18.661Z,1005.96
2024-04-23T00:39:18.761Z,1006.00
2024-04-23T00:40:18.828Z,1005.99
2024-04-23T00:41:18.918Z,1006.04
2024-04-23T00:42:18.994Z,1006.04
2024-04-23T00:43:19.040Z,1006.02
2024-04-23T00:44:20.015Z,1006.02
2024-04-23T00:45:20.352Z,1006.04
2024-04-23T00:46:19.727Z,1005.99
2024-04-23T00:47:20.757Z,1006.00
2024-04-23T00:48:20.621Z,1005.97
2024-04-23T00:49:20.548Z,1005.96
2024-04-23T00:50:19.584Z,1006.01
2024-04-23T00:51:20.200Z,1005.95
2024-04-23T00:52:20.691Z,1005.98
2024-04-23T00:53:19.886Z,1005.95
2024-04-23T00:54:20.691Z,1005.95
2024-04-23T00:55:19.996Z,1005.94
2024-04-23T00:56:20.496Z,1005.98
2024-04-23T00:57:20.998Z,1005.94
2024-04-23T00:58:20.848Z,1005.94
2024-04-23T00:59:20.340Z,1005.93
2024-04-23T01:00:20.736Z,1005.91
2024-04-23T01:01:20.635Z,1005.89
2024-04-23T01:02:20.722Z,1005.90
2024-04-23T01:03:20.733Z,1005.90
2024-04-23T01:04:20.704Z,1005.90
2024-04-23T01:05:20.790Z,1005.86
2024-04-23T01:06:20.869Z,1005.91
2024-04-23T01:07:20.935Z,1005.90
2024-04-23T01:08:21.069Z,1005.86
2024-04-23T01:09:21.083Z,1005.87
2024-04-23T01:10:21.165Z,1005.87
2024-04-23T01:11:21.250Z,1005.86
2024-04-23T01:12:21.282Z,1005.84
2024-04-23T01:13:21.356Z,1005.87
2024-04-23T01:14:21.464Z,1005.84
2024-04-23T01:15:21.524Z,1005.81
2024-04-23T01:16:21.594Z,1005.80
2024-04-23T01:17:21.743Z,1005.77
2024-04-23T01:18:21.796Z,1005.78
2024-04-23T01:19:21.801Z,1005.74
2024-04-23T01:20:21.914Z,1005.76
2024-04-23T01:21:21.990Z,1005.77
2024-04-23T01:22:22.075Z,1005.74
2024-04-23T01:23:22.131Z,1005.74
2024-04-23T01:24:22.206Z,1005.75
2024-04-23T01:25:22.299Z,1005.73
2024-04-23T01:26:22.368Z,1005.73
2024-04-23T01:27:22.441Z,1005.75
2024-04-23T01:28:22.511Z,1005.76
2024-04-23T01:29:22.588Z,1005.75
2024-04-23T01:30:22.686Z,1005.74
2024-04-23T01:31:22.755Z,1005.75
2024-04-23T01:32:23.244Z,1005.78
2024-04-23T01:33:24.701Z,1005.73
2024-04-23T01:34:24.684Z,1005.75
2024-04-23T01:35:24.039Z,1005.76
2024-04-23T01:36:24.070Z,1005.73
2024-04-23T01:37:23.259Z,1005.75
2024-04-23T01:38:24.461Z,1005.78
2024-04-23T01:39:24.632Z,1005.75
2024-04-23T01:40:24.639Z,1005.73
2024-04-23T01:41:23.727Z,1005.77
2024-04-23T01:42:24.322Z,1005.74
2024-04-23T01:43:23.737Z,1005.74
2024-04-23T01:44:24.350Z,1005.74
2024-04-23T01:45:24.708Z,1005.73
2024-04-23T01:46:24.701Z,1005.69
2024-04-23T01:47:24.606Z,1005.68
2024-04-23T01:48:24.813Z,1005.68
2024-04-23T01:49:24.243Z,1005.66
2024-04-23T01:50:24.401Z,1005.65
2024-04-23T01:51:24.585Z,1005.64
2024-04-23T01:52:24.688Z,1005.61
2024-04-23T01:53:24.509Z,1005.68
2024-04-23T01:54:24.566Z,1005.67
2024-04-23T01:55:24.725Z,1005.65
2024-04-23T01:56:24.745Z,1005.65
2024-04-23T01:57:24.782Z,1005.60
2024-04-23T01:58:24.913Z,1005.60
2024-04-23T01:59:24.966Z,1005.63
2024-04-23T02:00:25.034Z,1005.61
2024-04-23T02:01:25.234Z,1005.61
2024-04-23T02:02:25.202Z,1005.61
2024-04-23T02:03:25.335Z,1005.58
2024-04-23T02:04:25.362Z,1005.58
2024-04-23T02:05:25.432Z,1005.61
2024-04-23T02:06:25.527Z,1005.63
2024-04-23T02:07:25.630Z,1005.65
2024-04-23T02:08:25.673Z,1005.65
2024-04-23T02:09:25.763Z,1005.66
2024-04-23T02:10:25.900Z,1005.71
2024-04-23T02:11:26.165Z,1005.70
2024-04-23T02:12:26.004Z,1005.70
2024-04-23T02:13:26.096Z,1005.66
2024-04-23T02:14:26.160Z,1005.69
2024-04-23T02:15:26.228Z,1005.72
2024-04-23T02:16:26.346Z,1005.69
2024-04-23T02:17:26.412Z,1005.67
2024-04-23T02:18:26.511Z,1005.67
2024-04-23T02:19:26.554Z,1005.68
2024-04-23T02:20:26.607Z,1005.67
2024-04-23T02:21:26.696Z,1005.67
2024-04-23T02:22:26.800Z,1005.60
2024-04-23T02:23:26.862Z,1005.69
2024-04-23T02:24:26.929Z,1005.66
2024-04-23T02:25:27.023Z,1005.64
2024-04-23T02:26:27.113Z,1005.69
2024-04-23T02:27:27.159Z,1005.68
2024-04-23T02:28:27.265Z,1005.66
2024-04-23T02:29:27.317Z,1005.68
2024-04-23T02:30:27.395Z,1005.68
2024-04-23T02:31:27.539Z,1005.68
2024-04-23T02:32:27.638Z,1005.66
2024-04-23T02:33:27.707Z,1005.66
2024-04-23T02:34:27.748Z,1005.66
2024-04-23T02:35:27.803Z,1005.63
2024-04-23T02:36:27.905Z,1005.69
2024-04-23T02:37:28.012Z,1005.67
2024-04-23T02:38:28.074Z,1005.64
2024-04-23T02:39:28.155Z,1005.63
2024-04-23T02:40:28.239Z,1005.64
2024-04-23T02:41:28.302Z,1005.62
2024-04-23T02:42:28.380Z,1005.62
2024-04-23T02:43:28.481Z,1005.60
2024-04-23T02:44:28.537Z,1005.58
2024-04-23T02:45:31.290Z,1005.62
2024-04-23T02:46:28.732Z,1005.59
2024-04-23T02:47:28.845Z,1005.62
2024-04-23T02:48:28.983Z,1005.59
2024-04-23T02:49:28.937Z,1005.60
2024-04-23T02:50:29.004Z,1005.57
2024-04-23T02:51:29.099Z,1005.59
2024-04-23T02:52:29.163Z,1005.57
2024-04-23T02:53:29.226Z,1005.54
2024-04-23T02:54:29.290Z,1005.53
2024-04-23T02:55:29.389Z,1005.51
2024-04-23T02:56:29.479Z,1005.53
2024-04-23T02:57:29.519Z,1005.49
2024-04-23T02:58:29.640Z,1005.49
2024-04-23T02:59:29.682Z,1005.49
2024-04-23T03:00:29.764Z,1005.44
2024-04-23T03:01:29.909Z,1005.48
2024-04-23T03:02:29.990Z,1005.45
2024-04-23T03:03:30.053Z,1005.49
2024-04-23T03:04:30.150Z,1005.45
2024-04-23T03:05:30.162Z,1005.49
2024-04-23T03:06:30.244Z,1005.47
2024-04-23T03:07:30.327Z,1005.52
2024-04-23T03:08:33.784Z,1005.54
2024-04-23T03:09:30.463Z,1005.54
2024-04-23T03:10:30.536Z,1005.57
2024-04-23T03:11:30.670Z,1005.55
2024-04-23T03:12:30.693Z,1005.55
2024-04-23T03:13:30.807Z,1005.58
2024-04-23T03:14:30.828Z,1005.52
2024-04-23T03:15:30.900Z,1005.56
2024-04-23T03:16:31.020Z,1005.55
2024-04-23T03:17:31.112Z,1005.54
2024-04-23T03:18:31.238Z,1005.55
2024-04-23T03:19:31.258Z,1005.55
2024-04-23T03:20:31.311Z,1005.54
2024-04-23T03:21:31.410Z,1005.51
2024-04-23T03:22:31.485Z,1005.45
2024-04-23T03:23:31.553Z,1005.45
2024-04-23T03:24:31.628Z,1005.46
2024-04-23T03:25:31.717Z,1005.43
2024-04-23T03:26:31.825Z,1005.44
2024-04-23T03:27:31.855Z,1005.43
2024-04-23T03:28:31.933Z,1005.42
2024-04-23T03:29:31.997Z,1005.42
2024-04-23T03:30:32.098Z,1005.43
2024-04-23T03:31:32.250Z,1005.38
2024-04-23T03:32:32.385Z,1005.36
2024-04-23T03:33:32.460Z,1005.40
2024-04-23T03:34:32.475Z,1005.37
2024-04-23T03:35:32.505Z,1005.34
2024-04-23T03:36:32.608Z,1005.39
2024-04-23T03:37:32.669Z,1005.37
2024-04-23T03:38:32.725Z,1005.37
2024-04-23T03:39:32.825Z,1005.40
2024-04-23T03:40:32.926Z,1005.39
2024-04-23T03:41:32.958Z,1005.37
2024-04-23T03:42:33.027Z,1005.36
2024-04-23T03:43:33.100Z,1005.42
2024-04-23T03:44:35.874Z,1005.39
2024-04-23T03:45:33.223Z,1005.38
2024-04-23T03:46:33.346Z,1005.34
2024-04-23T03:47:33.529Z,1005.36
2024-04-23T03:48:33.481Z,1005.37
2024-04-23T03:49:33.541Z,1005.37
2024-04-23T03:50:33.599Z,1005.36
2024-04-23T03:51:33.695Z,1005.35
2024-04-23T03:52:33.787Z,1005.33
2024-04-23T03:53:33.859Z,1005.34
2024-04-23T03:54:33.926Z,1005.31
2024-04-23T03:55:34.021Z,1005.32
2024-04-23T03:56:34.079Z,1005.27
2024-04-23T03:57:34.127Z,1005.28
2024-04-23T03:58:34.225Z,1005.26
2024-04-23T03:59:34.272Z,1005.26
2024-04-23T04:00:34.406Z,1005.24
2024-04-23T04:01:34.514Z,1005.23
2024-04-23T04:02:34.534Z,1005.23
2024-04-23T04:03:34.651Z,1005.21
2024-04-23T04:04:34.712Z,1005.19
2024-04-23T04:05:34.769Z,1005.21
2024-04-23T04:06:34.839Z,1005.22
2024-04-23T04:07:34.942Z,1005.22
2024-04-23T04:08:34.969Z,1005.23
2024-04-23T04:09:35.054Z,1005.22
2024-04-23T04:10:35.186Z,1005.27
2024-04-23T04:11:35.543Z,1005.24
2024-04-23T04:12:35.266Z,1005.25
2024-04-23T04:13:35.367Z,1005.33
2024-04-23T04:14:35.420Z,1005.30
2024-04-23T04:15:35.490Z,1005.29
2024-04-23T04:16:36.199Z,1005.35
2024-04-23T04:17:35.903Z,1005.37
2024-04-23T04:18:35.768Z,1005.32
2024-04-23T04:19:35.814Z,1005.35
2024-04-23T04:20:35.847Z,1005.34
2024-04-23T04:21:35.941Z,1005.33
2024-04-23T04:22:36.050Z,1005.34
2024-04-23T04:23:36.082Z,1005.36
2024-04-23T04:24:36.168Z,1005.34
2024-04-23T04:25:36.260Z,1005.32
2024-04-23T04:26:36.335Z,1005.35
2024-04-23T04:27:36.395Z,1005.36
2024-04-23T04:28:36.487Z,1005.39
2024-04-23T04:29:36.569Z,1005.39
2024-04-23T04:30:36.641Z,1005.39
2024-04-23T04:31:36.751Z,1005.41
2024-04-23T04:32:36.871Z,1005.43
2024-04-23T04:33:36.899Z,1005.40
2024-04-23T04:34:36.968Z,1005.44
2024-04-23T04:35:37.009Z,1005.42
2024-04-23T04:36:37.095Z,1005.48
2024-04-23T04:37:37.208Z,1005.44
2024-04-23T04:38:37.284Z,1005.46
2024-04-23T04:39:37.333Z,1005.47
2024-04-23T04:40:37.425Z,1005.48
2024-04-23T04:41:37.478Z,1005.44
2024-04-23T04:42:37.547Z,1005.47
2024-04-23T04:43:37.651Z,1005.51
2024-04-23T04:44:37.672Z,1005.49
2024-04-23T04:45:37.781Z,1005.51
2024-04-23T04:46:37.916Z,1005.50
2024-04-23T04:47:37.977Z,1005.48
2024-04-23T04:48:38.016Z,1005.50
2024-04-23T04:49:38.106Z,1005.49
2024-04-23T04:50:38.204Z,1005.48
2024-04-23T04:51:38.273Z,1005.46
2024-04-23T04:52:38.355Z,1005.46
2024-04-23T04:53:38.417Z,1005.43
2024-04-23T04:54:38.464Z,1005.42
2024-04-23T04:55:38.543Z,1005.44
2024-04-23T04:56:38.639Z,1005.44
2024-04-23T04:57:38.737Z,1005.44
2024-04-23T04:58:38.801Z,1005.51
2024-04-23T04:59:38.859Z,1005.49
2024-04-23T05:00:41.065Z,1005.48
2024-04-23T05:01:39.047Z,1005.48
2024-04-23T05:02:39.173Z,1005.48
2024-04-23T05:03:39.202Z,1005.50
2024-04-23T05:04:39.290Z,1005.49
2024-04-23T05:05:39.347Z,1005.48
2024-04-23T05:06:40.587Z,1005.47
2024-04-23T05:07:40.304Z,1005.44
2024-04-23T05:08:40.378Z,1005.44
2024-04-23T05:09:41.124Z,1005.49
2024-04-23T05:10:40.914Z,1005.49
2024-04-23T05:11:40.650Z,1005.47
2024-04-23T05:12:40.803Z,1005.52
2024-04-23T05:13:41.167Z,1005.50
2024-04-23T05:14:40.402Z,1005.48
2024-04-23T05:15:40.873Z,1005.48
2024-04-23T05:16:40.548Z,1005.47
2024-04-23T05:17:40.401Z,1005.46
2024-04-23T05:18:41.157Z,1005.45
2024-04-23T05:19:40.876Z,1005.47
2024-04-23T05:20:40.969Z,1005.43
2024-04-23T05:21:41.067Z,1005.47
2024-04-23T05:22:41.165Z,1005.48
2024-04-23T05:23:41.109Z,1005.53
2024-04-23T05:24:40.978Z,1005.53
2024-04-23T05:25:41.143Z,1005.56
2024-04-23T05:26:41.222Z,1005.56
2024-04-23T05:27:41.214Z,1005.55
2024-04-23T05:28:41.270Z,1005.55
2024-04-23T05:29:41.308Z,1005.54
2024-04-23T05:30:41.425Z,1005.54
2024-04-23T05:31:41.519Z,1005.51
2024-04-23T05:32:41.647Z,1005.53
2024-04-23T05:33:41.712Z,1005.51
2024-04-23T05:34:41.781Z,1005.49
2024-04-23T05:35:41.820Z,1005.45
2024-04-23T05:36:41.911Z,1005.50
2024-04-23T05:37:42.002Z,1005.49
2024-04-23T05:38:42.054Z,1005.49
2024-04-23T05:39:42.150Z,1005.50
2024-04-23T05:40:42.218Z,1005.49
2024-04-23T05:41:42.293Z,1005.52
2024-04-23T05:42:42.348Z,1005.52
2024-04-23T05:43:42.433Z,1005.50
2024-04-23T05:44:42.482Z,1005.48
2024-04-23T05:45:42.558Z,1005.49
2024-04-23T05:46:42.713Z,1005.51
2024-04-23T05:47:42.779Z,1005.47
2024-04-23T05:48:42.817Z,1005.51
2024-04-23T05:49:42.920Z,1005.50
2024-04-23T05:50:43.093Z,1005.47
2024-04-23T05:51:43.134Z,1005.50
2024-04-23T05:52:44.188Z,1005.50
2024-04-23T05:53:44.785Z,1005.48
2024-04-23T05:54:44.882Z,1005.50
2024-04-23T05:55:47.683Z,1005.51
2024-04-23T05:56:44.895Z,1005.48
2024-04-23T05:57:44.624Z,1005.54
2024-04-23T05:58:44.784Z,1005.54
2024-04-23T05:59:44.736Z,1005.56
2024-04-23T06:00:44.773Z,1005.56
2024-04-23T06:01:44.758Z,1005.60
2024-04-23T06:02:44.746Z,1005.52
2024-04-23T06:03:44.569Z,1005.55
2024-04-23T06:04:45.162Z,1005.53
2024-04-23T06:05:44.949Z,1005.56
2024-04-23T06:06:44.884Z,1005.56
2024-04-23T06:07:44.835Z,1005.58
2024-04-23T06:08:44.671Z,1005.55
2024-04-23T06:09:45.013Z,1005.57
2024-04-23T06:10:44.855Z,1005.55
2024-04-23T06:11:44.825Z,1005.52
2024-04-23T06:12:46.810Z,1005.54
2024-04-23T06:13:44.937Z,1005.63
2024-04-23T06:14:44.956Z,1005.78
2024-04-23T06:15:45.047Z,1005.78
2024-04-23T06:16:45.102Z,1005.81
2024-04-23T06:17:48.005Z,1005.81
2024-04-23T06:18:45.504Z,1005.79
2024-04-23T06:19:45.365Z,1005.74
2024-04-23T06:20:45.440Z,1005.73
2024-04-23T06:21:45.520Z,1005.77
2024-04-23T06:22:45.705Z,1005.71
2024-04-23T06:23:45.673Z,1005.74
2024-04-23T06:24:45.769Z,1005.70
2024-04-23T06:25:45.889Z,1005.77
2024-04-23T06:26:45.922Z,1005.72
2024-04-23T06:27:46.035Z,1005.75
2024-04-23T06:28:46.112Z,1005.74
2024-04-23T06:29:46.153Z,1005.72
2024-04-23T06:30:46.225Z,1005.74
2024-04-23T06:31:46.428Z,1005.72
2024-04-23T06:32:46.478Z,1005.72
2024-04-23T06:33:46.467Z,1005.67
2024-04-23T06:34:46.603Z,1005.73
2024-04-23T06:35:46.611Z,1005.76
2024-04-23T06:36:46.687Z,1005.76
2024-04-23T06:37:46.811Z,1005.73
2024-04-23T06:38:46.814Z,1005.78
2024-04-23T06:39:46.881Z,1005.79
2024-04-23T06:40:46.965Z,1005.71
2024-04-23T06:41:47.003Z,1005.78
2024-04-23T06:42:47.079Z,1005.72
2024-04-23T06:43:47.165Z,1005.73
2024-04-23T06:44:47.210Z,1005.74
2024-04-23T06:45:47.287Z,1005.76
2024-04-23T06:46:47.350Z,1005.73
2024-04-23T06:47:47.441Z,1005.74
2024-04-23T06:48:47.474Z,1005.70
2024-04-23T06:49:47.562Z,1005.70
2024-04-23T06:50:47.639Z,1005.72
2024-04-23T06:51:47.702Z,1005.71
2024-04-23T06:52:47.841Z,1005.73
2024-04-23T06:53:47.910Z,1005.70
2024-04-23T06:54:48.004Z,1005.68
2024-04-23T06:55:48.059Z,1005.68
2024-04-23T06:56:48.114Z,1005.69
2024-04-23T06:57:48.231Z,1005.65
2024-04-23T06:58:48.318Z,1005.67
2024-04-23T06:59:48.380Z,1005.69
2024-04-23T07:00:48.486Z,1005.67
2024-04-23T07:01:48.640Z,1005.68
2024-04-23T07:02:48.706Z,1005.66
2024-04-23T07:03:48.675Z,1005.66
2024-04-23T07:04:48.777Z,1005.69
2024-04-23T07:05:48.837Z,1005.71
2024-04-23T07:06:48.903Z,1005.73
2024-04-23T07:07:49.078Z,1005.64
2024-04-23T07:08:49.054Z,1005.64
2024-04-23T07:09:49.131Z,1005.67
2024-04-23T07:10:49.276Z,1005.63
2024-04-23T07:11:49.415Z,1005.65
2024-04-23T07:12:49.421Z,1005.62
2024-04-23T07:13:49.512Z,1005.63
2024-04-23T07:14:49.567Z,1005.62
2024-04-23T07:15:49.617Z,1005.61
2024-04-23T07:16:49.917Z,1005.61
2024-04-23T07:17:50.005Z,1005.64
2024-04-23T07:18:56.565Z,1005.64
2024-04-23T07:19:52.179Z,1005.62
2024-04-23T07:20:50.014Z,1005.64
2024-04-23T07:21:50.110Z,1005.59
2024-04-23T07:22:50.237Z,1005.56
2024-04-23T07:23:50.285Z,1005.58
2024-04-23T07:24:50.359Z,1005.54
2024-04-23T07:25:50.418Z,1005.56
2024-04-23T07:26:50.475Z,1005.55
2024-04-23T07:27:50.594Z,1005.58
2024-04-23T07:28:50.667Z,1005.56
2024-04-23T07:29:50.712Z,1005.57
2024-04-23T07:30:50.799Z,1005.51
2024-04-23T07:31:50.870Z,1005.54
2024-04-23T07:32:50.976Z,1005.53
2024-04-23T07:33:51.003Z,1005.52
2024-04-23T07:34:51.129Z,1005.54
2024-04-23T07:35:51.199Z,1005.54
2024-04-23T07:36:51.226Z,1005.55
2024-04-23T07:37:51.355Z,1005.54
2024-04-23T07:38:51.394Z,1005.52
2024-04-23T07:39:51.452Z,1005.51
2024-04-23T07:40:51.579Z,1005.53
2024-04-23T07:41:51.620Z,1005.48
2024-04-23T07:42:51.688Z,1005.50
2024-04-23T07:43:51.849Z,1005.48
2024-04-23T07:44:51.865Z,1005.50
2024-04-23T07:45:51.944Z,1005.48
2024-04-23T07:46:52.044Z,1005.51
2024-04-23T07:47:52.365Z,1005.54
2024-04-23T07:48:52.171Z,1005.46
2024-04-23T07:49:52.320Z,1005.49
2024-04-23T07:50:52.332Z,1005.47
2024-04-23T07:51:52.388Z,1005.41
2024-04-23T07:52:52.525Z,1005.39
2024-04-23T07:53:52.570Z,1005.40
2024-04-23T07:54:52.629Z,1005.38
2024-04-23T07:55:52.712Z,1005.42
2024-04-23T07:56:52.764Z,1005.43
2024-04-23T07:57:52.876Z,1005.41
2024-04-23T07:58:52.999Z,1005.36
2024-04-23T07:59:53.021Z,1005.39
2024-04-23T08:00:53.134Z,1005.40
2024-04-23T08:01:53.200Z,1005.39
2024-04-23T08:02:53.328Z,1005.40
2024-04-23T08:03:53.345Z,1005.38
2024-04-23T08:04:53.411Z,1005.41
2024-04-23T08:05:53.512Z,1005.42
2024-04-23T08:06:53.582Z,1005.43
2024-04-23T08:07:53.761Z,1005.40
2024-04-23T08:08:53.746Z,1005.36
2024-04-23T08:09:53.844Z,1005.40
2024-04-23T08:10:53.966Z,1005.38
2024-04-23T08:11:54.099Z,1005.43
2024-04-23T08:12:54.120Z,1005.44
2024-04-23T08:13:54.248Z,1005.41
2024-04-23T08:14:54.295Z,1005.42
2024-04-23T08:15:54.347Z,1005.38
2024-04-23T08:16:54.497Z,1005.40
2024-04-23T08:17:54.774Z,1005.38
2024-04-23T08:18:54.674Z,1005.37
2024-04-23T08:19:54.725Z,1005.41
2024-04-23T08:20:54.760Z,1005.37
2024-04-23T08:21:54.814Z,1005.38
2024-04-23T08:22:54.917Z,1005.29
2024-04-23T08:23:54.959Z,1005.26
2024-04-23T08:24:55.074Z,1005.26
2024-04-23T08:25:55.124Z,1005.29
2024-04-23T08:26:55.178Z,1005.25
2024-04-23T08:27:55.333Z,1005.25
2024-04-23T08:28:55.423Z,1005.22
2024-04-23T08:29:55.424Z,1005.19
2024-04-23T08:30:55.495Z,1005.20
2024-04-23T08:31:55.592Z,1005.22
2024-04-23T08:32:55.690Z,1005.23
2024-04-23T08:33:55.685Z,1005.24
2024-04-23T08:34:55.775Z,1005.22
2024-04-23T08:35:55.817Z,1005.22
2024-04-23T08:36:55.946Z,1005.22
2024-04-23T08:37:56.031Z,1005.20
2024-04-23T08:38:56.040Z,1005.19
2024-04-23T08:39:56.107Z,1005.19
2024-04-23T08:40:56.201Z,1005.18
2024-04-23T08:41:56.278Z,1005.21
2024-04-23T08:42:56.304Z,1005.21
2024-04-23T08:43:56.416Z,1005.21
2024-04-23T08:44:56.463Z,1005.22
2024-04-23T08:45:56.545Z,1005.24
2024-04-23T08:46:56.688Z,1005.21
2024-04-23T08:47:56.804Z,1005.22
2024-04-23T08:48:56.781Z,1005.25
2024-04-23T08:49:56.897Z,1005.25
2024-04-23T08:50:57.005Z,1005.23
2024-04-23T08:51:57.098Z,1005.22
2024-04-23T08:52:57.183Z,1005.18
2024-04-23T08:53:57.219Z,1005.16
2024-04-23T08:54:57.279Z,1005.13
2024-04-23T08:55:57.373Z,1005.13
2024-04-23T08:56:57.410Z,1005.09
2024-04-23T08:57:57.494Z,1005.12
2024-04-23T08:58:57.671Z,1005.08
2024-04-23T08:59:57.658Z,1005.09
2024-04-23T09:00:57.768Z,1005.06
2024-04-23T09:01:57.838Z,1005.06
2024-04-23T09:02:57.980Z,1005.06
2024-04-23T09:03:58.073Z,1005.05
2024-04-23T09:04:58.142Z,1005.04
2024-04-23T09:05:58.165Z,1004.99
2024-04-23T09:06:58.278Z,1005.01
2024-04-23T09:07:58.363Z,1004.75
2024-04-23T09:08:58.407Z,1004.97
2024-04-23T09:09:58.480Z,1004.98
2024-04-23T09:10:58.702Z,1004.99
2024-04-23T09:11:58.787Z,1004.92
2024-04-23T09:12:58.737Z,1004.93
2024-04-23T09:13:58.998Z,1004.89
2024-04-23T09:14:59.006Z,1004.95
2024-04-23T09:15:58.930Z,1004.91
2024-04-23T09:16:59.058Z,1004.95
2024-04-23T09:17:59.300Z,1004.96
2024-04-23T09:18:59.194Z,1004.96
2024-04-23T09:19:59.335Z,1004.93
2024-04-23T09:20:59.385Z,1004.75
2024-04-23T09:21:59.445Z,1004.59
2024-04-23T09:22:59.593Z,1004.79
2024-04-23T09:23:59.571Z,1004.61
2024-04-23T09:24:59.626Z,1004.64
2024-04-23T09:25:59.778Z,1004.88
2024-04-23T09:27:00.055Z,1004.81
2024-04-23T09:28:00.215Z,1004.94
2024-04-23T09:29:00.386Z,1004.92
2024-04-23T09:30:00.273Z,1004.91
2024-04-23T09:31:00.530Z,1004.65
2024-04-23T09:32:00.644Z,1004.69
2024-04-23T09:33:00.531Z,1004.83
2024-04-23T09:34:00.366Z,1004.83
2024-04-23T09:35:00.850Z,1004.81
2024-04-23T09:36:00.654Z,1004.80
2024-04-23T09:37:00.583Z,1004.85
2024-04-23T09:38:00.752Z,1004.75
2024-04-23T09:39:01.223Z,1004.69
2024-04-23T09:40:01.535Z,1004.74
2024-04-23T09:41:01.412Z,1004.72
2024-04-23T09:42:01.390Z,1004.73
2024-04-23T09:43:01.278Z,1004.71
2024-04-23T09:44:01.349Z,1004.63
2024-04-23T09:45:01.278Z,1004.71
2024-04-23T09:46:01.320Z,1004.68
2024-04-23T09:47:01.419Z,1004.64
2024-04-23T09:48:01.566Z,1004.62
2024-04-23T09:49:01.619Z,1004.61
2024-04-23T09:50:01.671Z,1004.69
2024-04-23T09:51:01.721Z,1004.64
2024-04-23T09:52:02.970Z,1004.63
2024-04-23T09:53:01.855Z,1004.62
2024-04-23T09:54:01.900Z,1004.41
2024-04-23T09:55:02.124Z,1004.46
2024-04-23T09:56:02.119Z,1004.47
2024-04-23T09:57:02.156Z,1004.44
2024-04-23T09:58:02.252Z,1004.47
2024-04-23T09:59:02.404Z,1004.46
2024-04-23T10:00:02.446Z,1004.47
2024-04-23T10:01:02.573Z,1004.45
2024-04-23T10:02:02.682Z,1004.41
2024-04-23T10:03:02.801Z,1004.58
2024-04-23T10:04:02.739Z,1004.55
2024-04-23T10:05:03.136Z,1004.52
2024-04-23T10:06:02.865Z,1004.44
2024-04-23T10:07:02.932Z,1004.38
2024-04-23T10:08:03.159Z,1004.31
2024-04-23T10:09:03.094Z,1004.47
2024-04-23T10:10:03.156Z,1004.41
2024-04-23T10:11:03.349Z,1004.41
2024-04-23T10:12:03.361Z,1004.40
2024-04-23T10:13:03.391Z,1004.32
2024-04-23T10:14:03.532Z,1004.29
2024-04-23T10:15:04.953Z,1004.33
2024-04-23T10:16:05.240Z,1004.31
2024-04-23T10:17:05.434Z,1004.29
2024-04-23T10:18:05.470Z,1004.31
2024-04-23T10:19:05.154Z,1004.26
2024-04-23T10:20:04.003Z,1004.23
2024-04-23T10:21:05.121Z,1004.23
2024-04-23T10:22:04.979Z,1004.26
2024-04-23T10:23:05.457Z,1004.24
2024-04-23T10:24:04.525Z,1004.22
2024-04-23T10:25:05.236Z,1004.20
2024-04-23T10:26:05.300Z,1004.16
2024-04-23T10:27:05.286Z,1004.16
2024-04-23T10:28:05.048Z,1004.11
2024-04-23T10:29:05.501Z,1004.08
2024-04-23T10:30:04.839Z,1004.07
2024-04-23T10:31:05.363Z,1004.05
2024-04-23T10:32:05.419Z,1004.02
2024-04-23T10:33:05.100Z,1004.01
2024-04-23T10:34:05.140Z,1004.04
2024-04-23T10:35:05.208Z,1004.02
2024-04-23T10:36:05.267Z,1004.00
2024-04-23T10:37:05.334Z,1004.03
2024-04-23T10:38:05.479Z,1004.01
2024-04-23T10:39:05.503Z,1003.98
2024-04-23T10:40:05.654Z,1003.98
2024-04-23T10:41:05.761Z,1004.01
2024-04-23T10:42:05.714Z,1003.97
2024-04-23T10:43:05.785Z,1003.99
2024-04-23T10:44:05.887Z,1003.94
2024-04-23T10:45:05.896Z,1003.93
2024-04-23T10:46:05.982Z,1004.00
2024-04-23T10:47:06.071Z,1003.92
2024-04-23T10:48:06.233Z,1003.95
2024-04-23T10:49:06.252Z,1003.92
2024-04-23T10:50:06.421Z,1003.86
2024-04-23T10:51:06.383Z,1003.85
2024-04-23T10:52:06.482Z,1003.87
2024-04-23T10:53:06.583Z,1003.84
2024-04-23T10:54:09.755Z,1003.82
2024-04-23T10:55:06.702Z,1003.83
2024-04-23T10:56:06.841Z,1003.81
2024-04-23T10:57:06.872Z,1003.85
2024-04-23T10:58:06.973Z,1003.81
2024-04-23T10:59:07.089Z,1003.81
2024-04-23T11:00:07.173Z,1003.83
2024-04-23T11:01:07.399Z,1003.76
2024-04-23T11:02:07.403Z,1003.74
2024-04-23T11:03:07.463Z,1003.81
2024-04-23T11:04:07.689Z,1003.76
2024-04-23T11:05:07.684Z,1003.76
2024-04-23T11:06:11.354Z,1003.72
2024-04-23T11:07:07.766Z,1003.76
2024-04-23T11:08:07.920Z,1003.67
2024-04-23T11:09:07.894Z,1003.70
2024-04-23T11:10:07.969Z,1003.67
2024-04-23T11:11:08.155Z,1003.68
2024-04-23T11:12:10.487Z,1003.60
2024-04-23T11:13:08.219Z,1003.59
2024-04-23T11:14:08.318Z,1003.54
2024-04-23T11:15:08.419Z,1003.56
2024-04-23T11:16:08.435Z,1003.54
2024-04-23T11:17:08.599Z,1003.55
2024-04-23T11:18:11.192Z,1003.53
2024-04-23T11:19:09.202Z,1003.52
2024-04-23T11:20:08.916Z,1003.53
2024-04-23T11:21:08.882Z,1003.49
2024-04-23T11:22:08.949Z,1003.49
2024-04-23T11:23:09.117Z,1003.42
2024-04-23T11:24:10.624Z,1003.46
2024-04-23T11:25:09.215Z,1003.44
2024-04-23T11:26:09.322Z,1003.51
2024-04-23T11:27:09.337Z,1003.47
2024-04-23T11:28:09.419Z,1003.48
2024-04-23T11:29:09.578Z,1003.47
2024-04-23T11:30:12.209Z,1003.50
2024-04-23T11:31:09.694Z,1003.48
2024-04-23T11:32:09.819Z,1003.49
2024-04-23T11:33:09.999Z,1003.48
2024-04-23T11:34:09.922Z,1003.44
2024-04-23T11:35:10.165Z,1003.46
2024-04-23T11:36:13.192Z,1003.48
2024-04-23T11:37:10.142Z,1003.45
2024-04-23T11:38:10.242Z,1003.44
2024-04-23T11:39:10.328Z,1003.44
2024-04-23T11:40:10.378Z,1003.42
2024-04-23T11:41:10.602Z,1003.42
2024-04-23T11:42:12.435Z,1003.36
2024-04-23T11:43:10.634Z,1003.30
2024-04-23T11:44:10.818Z,1003.37
2024-04-23T11:45:10.791Z,1003.35
2024-04-23T11:46:10.881Z,1003.31
2024-04-23T11:47:11.029Z,1003.31
2024-04-23T11:48:11.176Z,1003.33
2024-04-23T11:49:11.135Z,1003.30
2024-04-23T11:50:11.221Z,1003.35
2024-04-23T11:51:11.256Z,1003.32
2024-04-23T11:52:11.365Z,1003.33
2024-04-23T11:53:11.437Z,1003.31
2024-04-23T11:54:11.639Z,1003.29
2024-04-23T11:55:11.639Z,1003.22
2024-04-23T11:56:11.652Z,1003.26
2024-04-23T11:57:11.722Z,1003.19
2024-04-23T11:58:11.804Z,1003.18
2024-04-23T11:59:11.925Z,1003.19
2024-04-23T12:00:11.974Z,1003.15
2024-04-23T12:01:12.077Z,1003.15
2024-04-23T12:02:12.160Z,1003.13
2024-04-23T12:03:12.248Z,1003.10
2024-04-23T12:04:12.368Z,1003.09
2024-04-23T12:05:12.520Z,1003.05
2024-04-23T12:06:12.786Z,1003.07